site sitenws-alerts: Checking more than four warning/county codes can delay the loading of your pages. You should use a cron job to get the data.

Nearby METAR Weather Reports

 

KDMA - Davis/Tucson, Arizona, USA
Distance from station: W 21mi, 34km
Updated: 03/20/2019 8:58am
Clear
Clear
 Wind from S
Wind: S 5 mph , 7 km/h
Temperature: 64°F , 18°C
Dew Point: 41°F , 5°C
Humidity: 43%
Barometer: 30.05 inHg , 1017.6 hPa
Clouds: Clear
Visibility: 10 miles , 16 km
2019/03/20 15:58 KDMA 201558Z AUTO 17004KT 10SM CLR 18/05 A3005 RMK AO2 SLP146 T01760049 $
KTUS - Tucson, Arizona, USA
Distance from station: W 26mi, 42km
Updated: 03/20/2019 8:53am
Clear
Clear
 Wind from SSE
Wind: SSE 7 mph , 11 km/h
Temperature: 63°F , 17°C
Dew Point: 39°F , 4°C
Humidity: 42%
Barometer: 30.06 inHg , 1017.9 hPa
Clouds: Clear
Visibility: 10 miles , 16 km
2019/03/20 15:53 KTUS 201553Z 16006KT 10SM CLR 17/04 A3006 RMK AO2 SLP148 T01720044
 
KALK - Pioneer Airfield, Arizona, USA
Distance from station: S 37mi, 60km
Updated: 03/20/2019 1:56am
NOT Current
Clear
Clear
 Wind from WNW
Wind: WNW 9 mph , 15 km/h
Temperature: 46°F , 8°C
Wind Chill: 41°F , 5°C
Dew Point: 32°F , 0°C
Humidity: 57%
Barometer: 30.12 inHg , 1020 hPa
Clouds: Clear
Visibility: 10 miles , 16 km
2019/03/20 08:56 KALK 200856Z AUTO 29008KT 10SM CLR 08/00 A3012 RMK AO2 SLP131 T00830000 50002
KRYN - Tucson/Ryan Fld, Arizona, USA
Distance from station: W 39mi, 62km
Updated: 03/20/2019 8:45am
Clear
Clear
 Wind from E
Wind: E 8 mph , 13 km/h
Temperature: 63°F , 17°C
Dew Point: 43°F , 6°C
Humidity: 49%
Barometer: 30.06 inHg , 1017.9 hPa
Clouds: Clear
Visibility: 10 miles , 16 km
2019/03/20 15:45 KRYN 201545Z 09007KT 10SM CLR 17/06 A3006
 
KFHU - Fort Huachuca, Arizona, USA
Distance from station: SSE 39mi, 63km
Updated: 03/20/2019 8:58am
Clear
Clear
 Wind from SSE
Wind: SSE 7 mph , 11 km/h
Temperature: 64°F , 18°C
Dew Point: 32°F , 0°C
Humidity: 30%
Barometer: 30.15 inHg , 1021 hPa
Clouds: Clear
Visibility: 10 miles , 16 km
2019/03/20 15:58 KFHU 201558Z AUTO 15006KT 10SM CLR 18/00 A3015 RMK AO2 SLP156 T01781003
KOLS - Nogales, Arizona, USA
Distance from station: SSW 54mi, 86km
Updated: 03/20/2019 8:54am
Clear
Clear
 Wind from S
Wind: S 6 mph , 9 km/h
Temperature: 63°F , 17°C
Dew Point: 37°F , 3°C
Humidity: 39%
Barometer: 30.10 inHg , 1019.3 hPa
Clouds: Clear
Visibility: 10 miles , 16 km
2019/03/20 15:54 KOLS 201554Z AUTO 17005KT 10SM CLR 17/03 A3010 RMK AO2 SLP151 T01670028
 
KDUG - Douglas Bisbee, Arizona, USA
Distance from station: SE 71mi, 114km
Updated: 03/20/2019 8:56am
Clear
Clear
 Wind from S
Wind: S 6 mph , 9 km/h
Temperature: 59°F , 15°C
Dew Point: 37°F , 3°C
Humidity: 45%
Barometer: 30.14 inHg , 1020.7 hPa
Clouds: Clear
Visibility: 10 miles , 16 km
2019/03/20 15:56 KDUG 201556Z AUTO 19005KT 10SM CLR 15/03 A3014 RMK AO2 SLP161 T01500033
KSAD - Safford, Arizona, USA
Distance from station: NE 71mi, 114km
Updated: 03/20/2019 8:51am
Partly cloudy
Partly cloudy
 Wind from ESE
Wind: ESE 10 mph , 17 km/h
Temperature: 63°F , 17°C
Dew Point: 34°F , 1°C
Humidity: 34%
Barometer: 30.10 inHg , 1019.3 hPa
Clouds: Partly cloudy
Visibility: 10 miles , 16 km
Cloud details: Partly cloudy 11000 ft
2019/03/20 15:51 KSAD 201551Z AUTO 11009KT 10SM SCT110 17/01 A3010 RMK AO2 SLP166 T01670006
 
KCGZ - Casa Granda, Arizona, USA
Distance from station: NW 93mi, 149km
Updated: 03/20/2019 8:56am
Clear
Clear
 Wind from SE
Wind: SE 5 mph , 7 km/h
Temperature: 63°F , 17°C
Dew Point: 43°F , 6°C
Humidity: 49%
Barometer: 30.02 inHg , 1016.6 hPa
Clouds: Clear
Visibility: 10 miles , 16 km
2019/03/20 15:56 KCGZ 201556Z AUTO 14004KT 10SM CLR 17/06 A3002 RMK AO2 SLP160 T01720061 PNO $
KLSB - Lordsburg, New Mexico, USA
Distance from station: E 106mi, 171km
Updated: 02/26/2018 1:22pm
NOT Current
Clear
Clear
 Wind from ESE
Wind: ESE 13 mph , 20 km/h, Gust: 18 mph , 30 km/h
Temperature: 63°F , 17°C
Dew Point: 10°F , -12°C
Humidity: 13%
Barometer: 30.04 inHg , 1017.3 hPa
Clouds: Clear
Visibility: 10 miles , 16 km
2018/02/26 20:22 KLSB 262022Z AUTO 11011G16KT 090V150 10SM CLR 17/M12 A3004
 
KPHX - Phoenix/Sky Hrbr, Arizona, USA
Distance from station: NW 126mi, 202km
Updated: 03/20/2019 8:51am
Mostly cloudy
Mostly cloudy
 Wind from E
Wind: E 7 mph , 11 km/h
Temperature: 66°F , 19°C
Dew Point: 43°F , 6°C
Humidity: 43%
Barometer: 29.98 inHg , 1015.2 hPa
Clouds: Mostly cloudy
Visibility: 10 miles , 16 km
Cloud details: Few Clouds 11000 ft
Partly cloudy 22000 ft
Mostly cloudy 25000 ft
2019/03/20 15:51 KPHX 201551Z 10006KT 10SM FEW110 SCT220 BKN250 19/06 A2998 RMK AO2 SLP140 T01940056
KGXF - Gila Bend (aaf), Arizona, USA
Distance from station: WNW 139mi, 223km
Updated: 03/20/2019 8:58am
Clear
Clear
 Wind from calm
Wind: Calm
Temperature: 70°F , 21°C
Dew Point: 34°F , 1°C
Humidity: 27%
Barometer: 29.95 inHg , 1014.2 hPa
Clouds: Clear
Visibility: 10 miles , 16 km
2019/03/20 15:58 KGXF 201558Z AUTO 00000KT 10SM CLR 21/01 A2995 RMK AO2 SLP133 T02120006
 
KSVC - Silver City, New Mexico, USA
Distance from station: ENE 142mi, 228km
Updated: 03/20/2019 9:15am
Clear
Clear
 Wind from ESE
Wind: ESE 12 mph , 19 km/h
Temperature: 59°F , 15°C
Dew Point: 25°F , -4°C
Humidity: 27%
Barometer: 30.24 inHg , 1024 hPa
Clouds: Clear
Visibility: 10 miles , 16 km
2019/03/20 16:15 KSVC 201615Z AUTO 11010KT 10SM CLR 15/M04 A3024 RMK AO2 T01461036
KLUF - Luke Afb/Glendal, Arizona, USA
Distance from station: NW 144mi, 232km
Updated: 03/20/2019 8:58am
Clear
Clear
 Wind from N
Wind: N 6 mph , 9 km/h
Temperature: 66°F , 19°C
Dew Point: 45°F , 7°C
Humidity: 46%
Barometer: 29.98 inHg , 1015.2 hPa
Clouds: Clear
Visibility: 10 miles , 16 km
2019/03/20 15:58 KLUF 201558Z AUTO 01005KT 10SM CLR 19/07 A2998 RMK AO2 SLP146 T01910072 $